createdAt,value
2018-12-12T00:00:00.000Z,98707
2018-12-12T00:05:00.000Z,98719
2018-12-12T00:10:00.000Z,98717
2018-12-12T00:15:00.000Z,98712
2018-12-12T00:20:00.000Z,98722
2018-12-12T00:25:00.000Z,98714
2018-12-12T00:30:00.000Z,98718
2018-12-12T00:35:00.000Z,98715
2018-12-12T00:40:00.000Z,98741
2018-12-12T00:45:00.000Z,98744
2018-12-12T00:50:00.000Z,98734
2018-12-12T00:55:00.000Z,98741
2018-12-12T01:00:00.000Z,98739
2018-12-12T01:05:00.000Z,98744
2018-12-12T01:10:00.000Z,98749
2018-12-12T01:15:00.000Z,98748
2018-12-12T01:20:00.000Z,98749
2018-12-12T01:25:00.000Z,98750
2018-12-12T01:30:00.000Z,98751
2018-12-12T01:35:00.000Z,98752
2018-12-12T01:40:00.000Z,98749
2018-12-12T01:45:00.000Z,98758
2018-12-12T01:50:00.000Z,98752
2018-12-12T01:55:00.000Z,98748
2018-12-12T02:00:00.000Z,98768
2018-12-12T02:05:00.000Z,98754
2018-12-12T02:10:00.000Z,98757
2018-12-12T02:15:00.000Z,98749
2018-12-12T02:20:00.000Z,98757
2018-12-12T02:25:00.000Z,98749
2018-12-12T02:30:00.000Z,98761
2018-12-12T02:35:00.000Z,98758
2018-12-12T02:40:00.000Z,98747
2018-12-12T02:45:00.000Z,98760
2018-12-12T02:50:00.000Z,98753
2018-12-12T02:55:00.000Z,98748
2018-12-12T03:00:00.000Z,98760
2018-12-12T03:05:00.000Z,98758
2018-12-12T03:10:00.000Z,98755
2018-12-12T03:15:00.000Z,98758
2018-12-12T03:20:00.000Z,98760
2018-12-12T03:25:00.000Z,98752
2018-12-12T03:30:00.000Z,98754
2018-12-12T03:35:00.000Z,98760
2018-12-12T03:40:00.000Z,98765
2018-12-12T03:45:00.000Z,98762
2018-12-12T03:50:00.000Z,98764
2018-12-12T03:55:00.000Z,98761
2018-12-12T04:00:00.000Z,98771
2018-12-12T04:05:00.000Z,98768
2018-12-12T04:10:00.000Z,98751
2018-12-12T04:15:00.000Z,98765
2018-12-12T04:20:00.000Z,98766
2018-12-12T04:25:00.000Z,98760
2018-12-12T04:30:00.000Z,98770
2018-12-12T04:35:00.000Z,98774
2018-12-12T04:40:00.000Z,98767
2018-12-12T04:45:00.000Z,98768
2018-12-12T04:50:00.000Z,98775
2018-12-12T04:55:00.000Z,98779
2018-12-12T05:01:00.000Z,98782
2018-12-12T05:06:00.000Z,98782
2018-12-12T05:11:00.000Z,98787
2018-12-12T05:16:00.000Z,98794
2018-12-12T05:21:00.000Z,98791
2018-12-12T05:26:00.000Z,98796
2018-12-12T05:31:00.000Z,98805
2018-12-12T05:36:00.000Z,98804
2018-12-12T05:41:00.000Z,98807
2018-12-12T05:46:00.000Z,98831
2018-12-12T05:51:00.000Z,98830
2018-12-12T05:56:00.000Z,98836
2018-12-12T06:01:00.000Z,98836
2018-12-12T06:06:00.000Z,98846
2018-12-12T06:11:00.000Z,98851
2018-12-12T06:16:00.000Z,98855
2018-12-12T06:21:00.000Z,98862
2018-12-12T06:26:00.000Z,98869
2018-12-12T06:31:00.000Z,98867
2018-12-12T06:36:00.000Z,98872
2018-12-12T06:41:00.000Z,98875
2018-12-12T06:46:00.000Z,98876
2018-12-12T06:51:00.000Z,98882
2018-12-12T06:56:00.000Z,98894
2018-12-12T07:01:00.000Z,98889
2018-12-12T07:06:00.000Z,98903
2018-12-12T07:11:00.000Z,98904
2018-12-12T07:16:00.000Z,98902
2018-12-12T07:21:00.000Z,98921
2018-12-12T07:26:00.000Z,98908
2018-12-12T07:31:00.000Z,98925
2018-12-12T07:36:00.000Z,98919
2018-12-12T07:41:00.000Z,98933
2018-12-12T07:46:00.000Z,98930
2018-12-12T07:51:00.000Z,98948
2018-12-12T07:56:00.000Z,98947
2018-12-12T08:01:00.000Z,98945
2018-12-12T08:06:00.000Z,98960
2018-12-12T08:11:00.000Z,98967
2018-12-12T08:16:00.000Z,98969
2018-12-12T08:21:00.000Z,98977
2018-12-12T08:26:00.000Z,98962
2018-12-12T08:31:00.000Z,98988
2018-12-12T08:36:00.000Z,98987
2018-12-12T08:41:00.000Z,98984
2018-12-12T08:46:00.000Z,98988
2018-12-12T08:51:00.000Z,99006
2018-12-12T08:56:00.000Z,99002
2018-12-12T09:01:00.000Z,99018
2018-12-12T09:06:00.000Z,99027
2018-12-12T09:11:00.000Z,99031
2018-12-12T09:16:00.000Z,99014
2018-12-12T09:21:00.000Z,99018
2018-12-12T09:26:00.000Z,99015
2018-12-12T09:31:00.000Z,99012
2018-12-12T09:36:00.000Z,99021
2018-12-12T09:41:00.000Z,99019
2018-12-12T09:46:00.000Z,99013
2018-12-12T09:51:00.000Z,99021
2018-12-12T09:56:00.000Z,99017
2018-12-12T10:01:00.000Z,99020
2018-12-12T10:06:00.000Z,99021
2018-12-12T10:11:00.000Z,99013
2018-12-12T10:16:00.000Z,99028
2018-12-12T10:21:00.000Z,99016
2018-12-12T10:26:00.000Z,99018
2018-12-12T10:31:00.000Z,99018
2018-12-12T10:36:00.000Z,99013
2018-12-12T10:42:00.000Z,99008
2018-12-12T10:47:00.000Z,99016
2018-12-12T10:52:00.000Z,99005
2018-12-12T10:57:00.000Z,99011
2018-12-12T11:02:00.000Z,99002
2018-12-12T11:07:00.000Z,98999
2018-12-12T11:12:00.000Z,99005
2018-12-12T11:17:00.000Z,99002
2018-12-12T11:22:00.000Z,99009
2018-12-12T11:27:00.000Z,99007
2018-12-12T11:32:00.000Z,99008
2018-12-12T11:37:00.000Z,99005
2018-12-12T11:42:00.000Z,98999
2018-12-12T11:52:00.000Z,98998
2018-12-12T11:57:00.000Z,98992
2018-12-12T12:02:00.000Z,99002
2018-12-12T12:07:00.000Z,99000
2018-12-12T12:12:00.000Z,98999
2018-12-12T12:17:00.000Z,98997
2018-12-12T12:22:00.000Z,99004
2018-12-12T12:27:00.000Z,99012
2018-12-12T12:32:00.000Z,99009
2018-12-12T12:37:00.000Z,99013
2018-12-12T12:42:00.000Z,99014
2018-12-12T12:48:00.000Z,99016
2018-12-12T12:53:00.000Z,99014
2018-12-12T12:58:00.000Z,99018
2018-12-12T13:03:00.000Z,99016
2018-12-12T13:08:00.000Z,99011
2018-12-12T13:13:00.000Z,99008
2018-12-12T13:18:00.000Z,99011
2018-12-12T13:23:00.000Z,99011
2018-12-12T13:28:00.000Z,99021
2018-12-12T13:33:00.000Z,99012
2018-12-12T13:38:00.000Z,99027
2018-12-12T13:43:00.000Z,99029
2018-12-12T13:48:00.000Z,99033
2018-12-12T13:53:00.000Z,99036
2018-12-12T13:58:00.000Z,99044
2018-12-12T14:03:00.000Z,99044
2018-12-12T14:08:00.000Z,99044
2018-12-12T14:13:00.000Z,99048
2018-12-12T14:18:00.000Z,99054
2018-12-12T14:23:00.000Z,99049
2018-12-12T14:28:00.000Z,99044
2018-12-12T14:33:00.000Z,99051
2018-12-12T14:38:00.000Z,99052
2018-12-12T14:43:00.000Z,99059
2018-12-12T14:48:00.000Z,99058
2018-12-12T14:53:00.000Z,99071
2018-12-12T14:58:00.000Z,99060
2018-12-12T15:03:00.000Z,99065
2018-12-12T15:08:00.000Z,99067
2018-12-12T15:13:00.000Z,99065
2018-12-12T15:18:00.000Z,99068
2018-12-12T15:23:00.000Z,99079
2018-12-12T15:28:00.000Z,99071
2018-12-12T15:33:00.000Z,99069
2018-12-12T15:38:00.000Z,99068
2018-12-12T15:43:00.000Z,99062
2018-12-12T15:48:00.000Z,99059
2018-12-12T15:53:00.000Z,99067
2018-12-12T15:58:00.000Z,99057
2018-12-12T16:03:00.000Z,99068
2018-12-12T16:08:00.000Z,99063
2018-12-12T16:13:00.000Z,99073
2018-12-12T16:18:00.000Z,99074
2018-12-12T16:23:00.000Z,99077
2018-12-12T16:28:00.000Z,99091
2018-12-12T16:33:00.000Z,99079
2018-12-12T16:38:00.000Z,99082
2018-12-12T16:43:00.000Z,99086
2018-12-12T16:48:00.000Z,99077
2018-12-12T16:53:00.000Z,99070
2018-12-12T16:58:00.000Z,99074
2018-12-12T17:03:00.000Z,99074
2018-12-12T17:08:00.000Z,99084
2018-12-12T17:13:00.000Z,99085
2018-12-12T17:18:00.000Z,99076
2018-12-12T17:23:00.000Z,99086
2018-12-12T17:28:00.000Z,99094
2018-12-12T17:33:00.000Z,99075
2018-12-12T17:38:00.000Z,99086
2018-12-12T17:43:00.000Z,99077
2018-12-12T17:48:00.000Z,99089
2018-12-12T17:53:00.000Z,99097
2018-12-12T17:58:00.000Z,99100
2018-12-12T18:03:00.000Z,99105
2018-12-12T18:08:00.000Z,99100
2018-12-12T18:13:00.000Z,99108
2018-12-12T18:18:00.000Z,99105
2018-12-12T18:23:00.000Z,99121
2018-12-12T18:28:00.000Z,99124
2018-12-12T18:33:00.000Z,99127
2018-12-12T18:38:00.000Z,99114
2018-12-12T18:44:00.000Z,99121
2018-12-12T18:49:00.000Z,99124
2018-12-12T18:54:00.000Z,99129
2018-12-12T18:59:00.000Z,99127
2018-12-12T19:04:00.000Z,99141
2018-12-12T19:09:00.000Z,99141
2018-12-12T19:14:00.000Z,99145
2018-12-12T19:19:00.000Z,99149
2018-12-12T19:24:00.000Z,99151
2018-12-12T19:29:00.000Z,99146
2018-12-12T19:34:00.000Z,99146
2018-12-12T19:39:00.000Z,99150
2018-12-12T19:44:00.000Z,99140
2018-12-12T19:49:00.000Z,99148
2018-12-12T19:54:00.000Z,99146
2018-12-12T19:59:00.000Z,99142
2018-12-12T20:04:00.000Z,99143
2018-12-12T20:09:00.000Z,99151
2018-12-12T20:14:00.000Z,99153
2018-12-12T20:19:00.000Z,99148
2018-12-12T20:24:00.000Z,99160
2018-12-12T20:29:00.000Z,99160
2018-12-12T20:34:00.000Z,99157
2018-12-12T20:39:00.000Z,99160
2018-12-12T20:44:00.000Z,99160
2018-12-12T20:49:00.000Z,99154
2018-12-12T20:54:00.000Z,99160
2018-12-12T20:59:00.000Z,99155
2018-12-12T21:04:00.000Z,99158
2018-12-12T21:09:00.000Z,99168
2018-12-12T21:14:00.000Z,99174
2018-12-12T21:19:00.000Z,99170
2018-12-12T21:24:00.000Z,99182
2018-12-12T21:29:00.000Z,99179
2018-12-12T21:34:00.000Z,99188
2018-12-12T21:39:00.000Z,99182
2018-12-12T21:44:00.000Z,99177
2018-12-12T21:49:00.000Z,99175
2018-12-12T21:54:00.000Z,99192
2018-12-12T21:59:00.000Z,99186
2018-12-12T22:04:00.000Z,99198
2018-12-12T22:09:00.000Z,99187
2018-12-12T22:14:00.000Z,99186
2018-12-12T22:19:00.000Z,99184
2018-12-12T22:24:00.000Z,99180
2018-12-12T22:29:00.000Z,99188
2018-12-12T22:34:00.000Z,99191
2018-12-12T22:39:00.000Z,99190
2018-12-12T22:44:00.000Z,99197
2018-12-12T22:49:00.000Z,99205
2018-12-12T22:54:00.000Z,99207
2018-12-12T22:59:00.000Z,99205
2018-12-12T23:04:00.000Z,99213
2018-12-12T23:09:00.000Z,99204
2018-12-12T23:14:00.000Z,99211
2018-12-12T23:19:00.000Z,99209
2018-12-12T23:24:00.000Z,99202
2018-12-12T23:29:00.000Z,99197
2018-12-12T23:34:00.000Z,99200
2018-12-12T23:39:00.000Z,99195
2018-12-12T23:44:00.000Z,99193
2018-12-12T23:49:00.000Z,99184
2018-12-12T23:54:00.000Z,99195
2018-12-12T23:59:00.000Z,99179
